sensor_id;sensor_type;location;lat;lon;timestamp;pressure;altitude;pressure_sealevel;temperature;humidity
24825;BME280;12910;57.690;11.974;2023-04-03T00:01:03;102692.56;;;1.35;100.00
24825;BME280;12910;57.690;11.974;2023-04-03T00:03:28;102692.56;;;1.35;100.00
24825;BME280;12910;57.690;11.974;2023-04-03T00:05:54;102680.41;;;1.31;100.00
24825;BME280;12910;57.690;11.974;2023-04-03T00:08:20;102687.97;;;1.31;100.00
24825;BME280;12910;57.690;11.974;2023-04-03T00:10:45;102669.78;;;1.24;100.00
24825;BME280;12910;57.690;11.974;2023-04-03T00:13:11;102684.81;;;1.23;100.00
24825;BME280;12910;57.690;11.974;2023-04-03T00:15:37;102700.63;;;1.31;100.00
24825;BME280;12910;57.690;11.974;2023-04-03T00:18:03;102686.38;;;1.31;100.00
24825;BME280;12910;57.690;11.974;2023-04-03T00:20:29;102702.56;;;1.33;100.00
24825;BME280;12910;57.690;11.974;2023-04-03T00:22:54;102686.09;;;1.28;100.00
24825;BME280;12910;57.690;11.974;2023-04-03T00:25:20;102695.56;;;1.31;100.00
24825;BME280;12910;57.690;11.974;2023-04-03T00:27:46;102684.94;;;1.24;100.00
24825;BME280;12910;57.690;11.974;2023-04-03T00:30:14;102694.16;;;1.24;100.00
24825;BME280;12910;57.690;11.974;2023-04-03T00:32:40;102700.84;;;1.23;100.00
24825;BME280;12910;57.690;11.974;2023-04-03T00:35:06;102702.84;;;1.17;100.00
24825;BME280;12910;57.690;11.974;2023-04-03T00:37:32;102706.13;;;1.16;100.00
24825;BME280;12910;57.690;11.974;2023-04-03T00:39:58;102706.22;;;1.18;100.00
24825;BME280;12910;57.690;11.974;2023-04-03T00:42:23;102704.63;;;1.18;100.00
24825;BME280;12910;57.690;11.974;2023-04-03T00:47:16;102722.13;;;1.17;100.00
24825;BME280;12910;57.690;11.974;2023-04-03T00:49:43;102718.75;;;1.16;100.00
24825;BME280;12910;57.690;11.974;2023-04-03T00:52:14;102718.75;;;1.16;100.00
24825;BME280;12910;57.690;11.974;2023-04-03T00:54:42;102705.22;;;1.16;100.00
24825;BME280;12910;57.690;11.974;2023-04-03T00:57:09;102708.75;;;1.18;100.00
24825;BME280;12910;57.690;11.974;2023-04-03T00:59:40;102708.00;;;1.19;100.00
24825;BME280;12910;57.690;11.974;2023-04-03T01:02:09;102715.19;;;1.14;100.00
24825;BME280;12910;57.690;11.974;2023-04-03T01:04:38;102719.69;;;1.08;100.00
24825;BME280;12910;57.690;11.974;2023-04-03T01:09:43;102715.41;;;1.07;100.00
24825;BME280;12910;57.690;11.974;2023-04-03T01:12:30;102716.59;;;1.02;100.00
24825;BME280;12910;57.690;11.974;2023-04-03T01:15:03;102717.81;;;1.05;100.00
24825;BME280;12910;57.690;11.974;2023-04-03T01:17:36;102710.06;;;1.04;100.00
24825;BME280;12910;57.690;11.974;2023-04-03T01:28:07;102718.59;;;0.96;100.00
24825;BME280;12910;57.690;11.974;2023-04-03T01:30:48;102716.06;;;0.96;100.00
24825;BME280;12910;57.690;11.974;2023-04-03T01:33:15;102715.78;;;0.92;100.00
24825;BME280;12910;57.690;11.974;2023-04-03T01:35:41;102709.47;;;0.87;100.00
24825;BME280;12910;57.690;11.974;2023-04-03T01:38:06;102729.53;;;0.86;100.00
24825;BME280;12910;57.690;11.974;2023-04-03T01:40:32;102724.72;;;0.89;100.00
24825;BME280;12910;57.690;11.974;2023-04-03T01:42:57;102721.47;;;0.90;100.00
24825;BME280;12910;57.690;11.974;2023-04-03T01:45:23;102714.97;;;0.83;100.00
24825;BME280;12910;57.690;11.974;2023-04-03T01:47:48;102731.28;;;0.87;100.00
24825;BME280;12910;57.690;11.974;2023-04-03T01:50:13;102714.97;;;0.83;100.00
24825;BME280;12910;57.690;11.974;2023-04-03T01:52:39;102725.34;;;0.86;100.00
24825;BME280;12910;57.690;11.974;2023-04-03T01:55:04;102720.31;;;0.86;100.00
24825;BME280;12910;57.690;11.974;2023-04-03T01:57:30;102725.97;;;0.84;100.00
24825;BME280;12910;57.690;11.974;2023-04-03T01:59:55;102731.91;;;0.84;100.00
24825;BME280;12910;57.690;11.974;2023-04-03T02:02:21;102721.38;;;0.80;100.00
24825;BME280;12910;57.690;11.974;2023-04-03T02:04:46;102715.16;;;0.76;100.00
24825;BME280;12910;57.690;11.974;2023-04-03T02:07:11;102723.50;;;0.75;100.00
24825;BME280;12910;57.690;11.974;2023-04-03T02:09:37;102715.38;;;0.69;100.00
24825;BME280;12910;57.690;11.974;2023-04-03T02:12:02;102732.84;;;0.76;100.00
24825;BME280;12910;57.690;11.974;2023-04-03T02:14:28;102730.94;;;0.73;100.00
24825;BME280;12910;57.690;11.974;2023-04-03T02:16:53;102721.91;;;0.67;100.00
24825;BME280;12910;57.690;11.974;2023-04-03T02:19:19;102726.09;;;0.66;100.00
24825;BME280;12910;57.690;11.974;2023-04-03T02:21:44;102732.50;;;0.63;100.00
24825;BME280;12910;57.690;11.974;2023-04-03T02:24:09;102736.97;;;0.56;100.00
24825;BME280;12910;57.690;11.974;2023-04-03T02:26:35;102737.44;;;0.52;100.00
24825;BME280;12910;57.690;11.974;2023-04-03T02:29:00;102749.59;;;0.56;100.00
24825;BME280;12910;57.690;11.974;2023-04-03T02:31:26;102744.53;;;0.56;100.00
24825;BME280;12910;57.690;11.974;2023-04-03T02:33:51;102742.50;;;0.52;100.00
24825;BME280;12910;57.690;11.974;2023-04-03T02:36:16;102748.88;;;0.49;100.00
24825;BME280;12910;57.690;11.974;2023-04-03T02:38:42;102748.75;;;0.47;100.00
24825;BME280;12910;57.690;11.974;2023-04-03T02:41:09;102749.91;;;0.51;100.00
24825;BME280;12910;57.690;11.974;2023-04-03T02:43:35;102751.56;;;0.50;100.00
24825;BME280;12910;57.690;11.974;2023-04-03T02:46:00;102753.34;;;0.51;100.00
24825;BME280;12910;57.690;11.974;2023-04-03T02:48:26;102756.44;;;0.49;100.00
24825;BME280;12910;57.690;11.974;2023-04-03T02:50:52;102746.69;;;0.43;100.00
24825;BME280;12910;57.690;11.974;2023-04-03T02:53:18;102739.78;;;0.32;100.00
24825;BME280;12910;57.690;11.974;2023-04-03T02:55:44;102752.94;;;0.38;100.00
24825;BME280;12910;57.690;11.974;2023-04-03T02:58:09;102753.97;;;0.40;100.00
24825;BME280;12910;57.690;11.974;2023-04-03T03:00:35;102761.53;;;0.40;100.00
24825;BME280;12910;57.690;11.974;2023-04-03T03:03:00;102747.59;;;0.35;100.00
24825;BME280;12910;57.690;11.974;2023-04-03T03:05:26;102754.16;;;0.33;100.00
24825;BME280;12910;57.690;11.974;2023-04-03T03:07:52;102758.91;;;0.29;100.00
24825;BME280;12910;57.690;11.974;2023-04-03T03:10:18;102747.03;;;0.28;100.00
24825;BME280;12910;57.690;11.974;2023-04-03T03:12:43;102766.91;;;0.34;100.00
24825;BME280;12910;57.690;11.974;2023-04-03T03:15:08;102749.00;;;0.22;100.00
24825;BME280;12910;57.690;11.974;2023-04-03T03:17:34;102733.78;;;0.12;100.00
24825;BME280;12910;57.690;11.974;2023-04-03T03:20:02;102757.13;;;0.28;100.00
24825;BME280;12910;57.690;11.974;2023-04-03T03:22:28;102760.41;;;0.27;100.00
24825;BME280;12910;57.690;11.974;2023-04-03T03:24:53;102765.56;;;0.29;100.00
24825;BME280;12910;57.690;11.974;2023-04-03T03:27:18;102755.22;;;0.26;100.00
24825;BME280;12910;57.690;11.974;2023-04-03T03:29:44;102756.72;;;0.24;100.00
24825;BME280;12910;57.690;11.974;2023-04-03T03:32:09;102754.19;;;0.24;100.00
24825;BME280;12910;57.690;11.974;2023-04-03T03:34:35;102758.34;;;0.23;100.00
24825;BME280;12910;57.690;11.974;2023-04-03T03:37:00;102756.84;;;0.25;100.00
24825;BME280;12910;57.690;11.974;2023-04-03T03:39:26;102750.38;;;0.19;100.00
24825;BME280;12910;57.690;11.974;2023-04-03T03:41:51;102762.06;;;0.18;100.00
24825;BME280;12910;57.690;11.974;2023-04-03T03:44:19;102765.06;;;0.14;100.00
24825;BME280;12910;57.690;11.974;2023-04-03T03:46:44;102769.63;;;0.18;100.00
24825;BME280;12910;57.690;11.974;2023-04-03T03:49:10;102763.97;;;0.21;100.00
24825;BME280;12910;57.690;11.974;2023-04-03T03:51:36;102765.94;;;0.23;100.00
24825;BME280;12910;57.690;11.974;2023-04-03T03:54:03;102763.53;;;0.25;100.00
24825;BME280;12910;57.690;11.974;2023-04-03T03:56:29;102761.63;;;0.22;100.00
24825;BME280;12910;57.690;11.974;2023-04-03T03:58:54;102761.63;;;0.22;100.00
24825;BME280;12910;57.690;11.974;2023-04-03T04:01:22;102769.44;;;0.25;100.00
24825;BME280;12910;57.690;11.974;2023-04-03T04:03:47;102765.16;;;0.24;100.00
24825;BME280;12910;57.690;11.974;2023-04-03T04:06:14;102757.94;;;0.19;100.00
24825;BME280;12910;57.690;11.974;2023-04-03T04:08:41;102763.97;;;0.21;100.00
24825;BME280;12910;57.690;11.974;2023-04-03T04:11:07;102773.19;;;0.20;100.00
24825;BME280;12910;57.690;11.974;2023-04-03T04:13:33;102774.97;;;0.21;100.00
24825;BME280;12910;57.690;11.974;2023-04-03T04:15:59;102772.34;;;0.11;100.00
24825;BME280;12910;57.690;11.974;2023-04-03T04:18:24;102770.84;;;0.13;100.00
24825;BME280;12910;57.690;11.974;2023-04-03T04:20:50;102778.56;;;0.14;100.00
24825;BME280;12910;57.690;11.974;2023-04-03T04:23:17;102776.03;;;0.14;100.00
24825;BME280;12910;57.690;11.974;2023-04-03T04:25:47;102784.03;;;0.19;100.00
24825;BME280;12910;57.690;11.974;2023-04-03T04:28:13;102789.50;;;0.15;100.00
24825;BME280;12910;57.690;11.974;2023-04-03T04:30:38;102790.56;;;0.17;100.00
24825;BME280;12910;57.690;11.974;2023-04-03T04:33:04;102788.34;;;0.11;100.00
24825;BME280;12910;57.690;11.974;2023-04-03T04:35:30;102794.00;;;0.09;100.00
24825;BME280;12910;57.690;11.974;2023-04-03T04:37:55;102791.94;;;0.05;100.00
24825;BME280;12910;57.690;11.974;2023-04-03T04:40:21;102800.22;;;0.12;100.00
24825;BME280;12910;57.690;11.974;2023-04-03T04:42:47;102796.06;;;0.13;100.00
24825;BME280;12910;57.690;11.974;2023-04-03T04:45:12;102786.91;;;0.05;100.00
24825;BME280;12910;57.690;11.974;2023-04-03T04:47:37;102787.03;;;0.06;100.00
24825;BME280;12910;57.690;11.974;2023-04-03T04:50:03;102794.00;;;0.09;100.00
24825;BME280;12910;57.690;11.974;2023-04-03T04:52:29;102795.94;;;0.03;100.00
24825;BME280;12910;57.690;11.974;2023-04-03T04:54:54;102786.19;;;-0.12;100.00
24825;BME280;12910;57.690;11.974;2023-04-03T04:57:20;102788.13;;;-0.18;100.00
24825;BME280;12910;57.690;11.974;2023-04-03T04:59:45;102799.25;;;-0.16;100.00
24825;BME280;12910;57.690;11.974;2023-04-03T05:02:10;102806.78;;;-0.07;100.00
24825;BME280;12910;57.690;11.974;2023-04-03T05:04:36;102803.94;;;-0.02;100.00
24825;BME280;12910;57.690;11.974;2023-04-03T05:07:01;102801.44;;;-0.02;100.00
24825;BME280;12910;57.690;11.974;2023-04-03T05:09:27;102801.47;;;-0.10;100.00
24825;BME280;12910;57.690;11.974;2023-04-03T05:11:52;102792.25;;;-0.19;100.00
24825;BME280;12910;57.690;11.974;2023-04-03T05:14:18;102801.16;;;-0.22;100.00
24825;BME280;12910;57.690;11.974;2023-04-03T05:16:43;102794.50;;;-0.22;100.00
24825;BME280;12910;57.690;11.974;2023-04-03T05:19:09;102798.78;;;-0.12;100.00
24825;BME280;12910;57.690;11.974;2023-04-03T05:21:34;102802.34;;;-0.10;100.00
24825;BME280;12910;57.690;11.974;2023-04-03T05:24:01;102800.88;;;-0.08;100.00
24825;BME280;12910;57.690;11.974;2023-04-03T05:26:31;102795.81;;;-0.17;100.00
24825;BME280;12910;57.690;11.974;2023-04-03T05:28:57;102805.28;;;-0.14;100.00
24825;BME280;12910;57.690;11.974;2023-04-03T05:31:22;102802.06;;;-0.22;100.00
24825;BME280;12910;57.690;11.974;2023-04-03T05:33:48;102797.91;;;-0.21;100.00
24825;BME280;12910;57.690;11.974;2023-04-03T05:36:14;102805.00;;;-0.08;100.00
24825;BME280;12910;57.690;11.974;2023-04-03T05:38:39;102796.56;;;-0.09;100.00
24825;BME280;12910;57.690;11.974;2023-04-03T05:41:05;102796.38;;;-0.02;100.00
24825;BME280;12910;57.690;11.974;2023-04-03T05:43:31;102800.13;;;-0.07;100.00
24825;BME280;12910;57.690;11.974;2023-04-03T05:45:56;102801.00;;;-0.06;100.00
24825;BME280;12910;57.690;11.974;2023-04-03T05:48:21;102797.28;;;-0.10;100.00
24825;BME280;12910;57.690;11.974;2023-04-03T05:50:47;102806.34;;;-0.03;100.00
24825;BME280;12910;57.690;11.974;2023-04-03T05:53:17;102799.50;;;-0.04;100.00
24825;BME280;12910;57.690;11.974;2023-04-03T05:55:44;102799.22;;;-0.07;100.00
24825;BME280;12910;57.690;11.974;2023-04-03T05:58:09;102801.72;;;-0.07;100.00
24825;BME280;12910;57.690;11.974;2023-04-03T06:00:34;102804.41;;;-0.06;100.00
24825;BME280;12910;57.690;11.974;2023-04-03T06:03:00;102798.47;;;-0.06;100.00
24825;BME280;12910;57.690;11.974;2023-04-03T06:05:25;102793.28;;;-0.08;100.00
24825;BME280;12910;57.690;11.974;2023-04-03T06:07:51;102803.06;;;-0.02;100.00
24825;BME280;12910;57.690;11.974;2023-04-03T06:10:16;102798.59;;;-0.05;100.00
24825;BME280;12910;57.690;11.974;2023-04-03T06:12:42;102788.53;;;-0.05;100.00
24825;BME280;12910;57.690;11.974;2023-04-03T06:15:08;102787.78;;;-0.04;100.00
24825;BME280;12910;57.690;11.974;2023-04-03T06:17:35;102799.66;;;0.06;100.00
24825;BME280;12910;57.690;11.974;2023-04-03T06:20:01;102792.38;;;0.09;100.00
24825;BME280;12910;57.690;11.974;2023-04-03T06:22:27;102802.72;;;0.12;100.00
24825;BME280;12910;57.690;11.974;2023-04-03T06:24:54;102796.81;;;0.12;100.00
24825;BME280;12910;57.690;11.974;2023-04-03T06:27:20;102793.53;;;0.13;100.00
24825;BME280;12910;57.690;11.974;2023-04-03T06:29:45;102813.69;;;0.22;100.00
24825;BME280;12910;57.690;11.974;2023-04-03T06:32:11;102806.84;;;0.29;100.00
24825;BME280;12910;57.690;11.974;2023-04-03T06:34:36;102803.88;;;0.34;100.00
24825;BME280;12910;57.690;11.974;2023-04-03T06:37:02;102800.75;;;0.36;100.00
24825;BME280;12910;57.690;11.974;2023-04-03T06:39:27;102801.91;;;0.40;100.00
24825;BME280;12910;57.690;11.974;2023-04-03T06:41:53;102811.81;;;0.47;100.00
24825;BME280;12910;57.690;11.974;2023-04-03T06:44:18;102801.72;;;0.47;100.00
24825;BME280;12910;57.690;11.974;2023-04-03T06:46:44;102812.38;;;0.53;100.00
24825;BME280;12910;57.690;11.974;2023-04-03T06:49:11;102810.16;;;0.56;100.00
24825;BME280;12910;57.690;11.974;2023-04-03T06:51:37;102811.47;;;0.61;100.00
24825;BME280;12910;57.690;11.974;2023-04-03T06:54:04;102814.84;;;0.71;100.00
24825;BME280;12910;57.690;11.974;2023-04-03T06:56:30;102811.59;;;0.72;100.00
24825;BME280;12910;57.690;11.974;2023-04-03T06:58:56;102806.78;;;0.75;100.00
24825;BME280;12910;57.690;11.974;2023-04-03T07:01:24;102808.56;;;0.76;100.00
24825;BME280;12910;57.690;11.974;2023-04-03T07:03:51;102810.78;;;0.82;100.00
24825;BME280;12910;57.690;11.974;2023-04-03T07:06:18;102819.81;;;0.88;100.00
24825;BME280;12910;57.690;11.974;2023-04-03T07:08:44;102821.09;;;0.93;100.00
24825;BME280;12910;57.690;11.974;2023-04-03T07:11:11;102826.72;;;1.00;100.00
24825;BME280;12910;57.690;11.974;2023-04-03T07:13:37;102824.75;;;1.06;100.00
24825;BME280;12910;57.690;11.974;2023-04-03T07:16:03;102818.81;;;1.05;100.00
24825;BME280;12910;57.690;11.974;2023-04-03T07:18:30;102825.56;;;1.15;100.00
24825;BME280;12910;57.690;11.974;2023-04-03T07:20:56;102812.31;;;1.18;100.00
24825;BME280;12910;57.690;11.974;2023-04-03T07:23:23;102820.19;;;1.21;100.00
24825;BME280;12910;57.690;11.974;2023-04-03T07:25:50;102810.97;;;1.21;100.00
24825;BME280;12910;57.690;11.974;2023-04-03T07:28:16;102813.03;;;1.26;100.00
24825;BME280;12910;57.690;11.974;2023-04-03T07:30:47;102817.63;;;1.30;100.00
24825;BME280;12910;57.690;11.974;2023-04-03T07:33:15;102814.31;;;1.31;100.00
24825;BME280;12910;57.690;11.974;2023-04-03T07:35:42;102809.66;;;1.35;100.00
24825;BME280;12910;57.690;11.974;2023-04-03T07:38:08;102801.34;;;1.36;100.00
24825;BME280;12910;57.690;11.974;2023-04-03T07:40:34;102818.22;;;1.46;100.00
24825;BME280;12910;57.690;11.974;2023-04-03T07:43:00;102803.81;;;1.45;100.00
24825;BME280;12910;57.690;11.974;2023-04-03T07:45:26;102813.38;;;1.58;100.00
24825;BME280;12910;57.690;11.974;2023-04-03T07:47:52;102811.88;;;1.60;98.68
24825;BME280;12910;57.690;11.974;2023-04-03T07:50:18;102802.63;;;1.61;99.25
24825;BME280;12910;57.690;11.974;2023-04-03T07:52:44;102807.75;;;1.71;100.00
24825;BME280;12910;57.690;11.974;2023-04-03T07:55:09;102805.63;;;1.76;100.00
24825;BME280;12910;57.690;11.974;2023-04-03T07:57:35;102814.34;;;1.79;100.00
24825;BME280;12910;57.690;11.974;2023-04-03T08:00:02;102817.03;;;1.81;100.00
24825;BME280;12910;57.690;11.974;2023-04-03T08:02:28;102804.41;;;1.81;100.00
24825;BME280;12910;57.690;11.974;2023-04-03T08:04:53;102819.22;;;1.86;100.00
24825;BME280;12910;57.690;11.974;2023-04-03T08:07:18;102805.38;;;1.83;99.58
24825;BME280;12910;57.690;11.974;2023-04-03T08:09:44;102817.69;;;1.89;100.00
24825;BME280;12910;57.690;11.974;2023-04-03T08:12:10;102821.41;;;1.92;98.09
24825;BME280;12910;57.690;11.974;2023-04-03T08:14:36;102815.72;;;1.95;98.67
24825;BME280;12910;57.690;11.974;2023-04-03T08:17:03;102816.88;;;1.98;95.59
24825;BME280;12910;57.690;11.974;2023-04-03T08:19:30;102815.38;;;2.00;92.40
24825;BME280;12910;57.690;11.974;2023-04-03T08:21:55;102808.16;;;2.05;92.77
24825;BME280;12910;57.690;11.974;2023-04-03T08:24:22;102814.03;;;2.14;95.60
24825;BME280;12910;57.690;11.974;2023-04-03T08:26:48;102813.38;;;2.17;97.14
24825;BME280;12910;57.690;11.974;2023-04-03T08:29:13;102815.28;;;2.20;95.14
24825;BME280;12910;57.690;11.974;2023-04-03T08:31:38;102790.97;;;2.11;93.73
24825;BME280;12910;57.690;11.974;2023-04-03T08:34:04;102809.25;;;2.28;92.84
24825;BME280;12910;57.690;11.974;2023-04-03T08:36:30;102805.47;;;2.33;91.01
24825;BME280;12910;57.690;11.974;2023-04-03T08:38:56;102815.84;;;2.36;89.70
24825;BME280;12910;57.690;11.974;2023-04-03T08:49:45;102802.84;;;2.52;83.09
24825;BME280;12910;57.690;11.974;2023-04-03T08:52:19;102814.38;;;2.59;84.99
24825;BME280;12910;57.690;11.974;2023-04-03T08:54:57;102810.63;;;2.64;85.11
24825;BME280;12910;57.690;11.974;2023-04-03T08:57:32;102813.66;;;2.70;82.50
24825;BME280;12910;57.690;11.974;2023-04-03T09:00:01;102816.69;;;2.76;80.16
24825;BME280;12910;57.690;11.974;2023-04-03T09:02:34;102812.53;;;2.77;79.14
24825;BME280;12910;57.690;11.974;2023-04-03T09:05:17;102797.72;;;2.82;78.99
24825;BME280;12910;57.690;11.974;2023-04-03T09:07:46;102807.19;;;2.84;80.05
24825;BME280;12910;57.690;11.974;2023-04-03T09:10:14;102805.53;;;2.85;78.55
24825;BME280;12910;57.690;11.974;2023-04-03T09:13:13;102799.22;;;2.90;79.40
24825;BME280;12910;57.690;11.974;2023-04-03T09:15:44;102792.00;;;2.84;72.89
24825;BME280;12910;57.690;11.974;2023-04-03T09:18:30;102798.69;;;2.94;74.13
24825;BME280;12910;57.690;11.974;2023-04-03T09:21:07;102791.88;;;2.93;73.95
24825;BME280;12910;57.690;11.974;2023-04-03T09:26:05;102802.78;;;3.13;71.16
24825;BME280;12910;57.690;11.974;2023-04-03T09:28:38;102804.03;;;3.18;71.31
24825;BME280;12910;57.690;11.974;2023-04-03T09:31:18;102795.66;;;3.19;67.54
24825;BME280;12910;57.690;11.974;2023-04-03T09:33:45;102789.31;;;3.24;69.73
24825;BME280;12910;57.690;11.974;2023-04-03T09:36:11;102787.53;;;3.23;71.92
24825;BME280;12910;57.690;11.974;2023-04-03T09:38:36;102791.72;;;3.22;71.24
24825;BME280;12910;57.690;11.974;2023-04-03T09:41:11;102787.53;;;3.23;73.09
24825;BME280;12910;57.690;11.974;2023-04-03T09:43:38;102779.19;;;3.24;75.71
24825;BME280;12910;57.690;11.974;2023-04-03T09:48:57;102784.75;;;3.30;76.69
24825;BME280;12910;57.690;11.974;2023-04-03T09:51:27;102775.59;;;3.32;74.79
24825;BME280;12910;57.690;11.974;2023-04-03T09:53:53;102765.25;;;3.29;74.66
24825;BME280;12910;57.690;11.974;2023-04-03T09:56:21;102779.31;;;3.36;74.29
24825;BME280;12910;57.690;11.974;2023-04-03T09:59:08;102769.91;;;3.45;75.32
24825;BME280;12910;57.690;11.974;2023-04-03T10:01:41;102769.38;;;3.49;76.10
24825;BME280;12910;57.690;11.974;2023-04-03T10:04:18;102762.41;;;3.47;74.30
24825;BME280;12910;57.690;11.974;2023-04-03T10:06:53;102766.81;;;3.59;72.28
24825;BME280;12910;57.690;11.974;2023-04-03T10:09:29;102758.69;;;3.64;73.43
24825;BME280;12910;57.690;11.974;2023-04-03T10:14:28;102763.47;;;3.71;71.04
24825;BME280;12910;57.690;11.974;2023-04-03T10:25:42;102745.78;;;3.83;71.74
24825;BME280;12910;57.690;11.974;2023-04-03T10:31:22;102727.66;;;3.78;69.60
24825;BME280;12910;57.690;11.974;2023-04-03T10:33:56;102733.59;;;3.89;71.35
24825;BME280;12910;57.690;11.974;2023-04-03T10:42:08;102725.16;;;4.00;71.00
24825;BME280;12910;57.690;11.974;2023-04-03T10:44:51;102721.44;;;4.07;71.77
24825;BME280;12910;57.690;11.974;2023-04-03T10:47:28;102713.66;;;4.16;71.08
24825;BME280;12910;57.690;11.974;2023-04-03T10:53:01;102707.16;;;4.19;71.61
24825;BME280;12910;57.690;11.974;2023-04-03T10:55:49;102704.63;;;4.19;69.80
24825;BME280;12910;57.690;11.974;2023-04-03T10:58:32;102696.09;;;4.19;68.43
24825;BME280;12910;57.690;11.974;2023-04-03T11:01:30;102689.72;;;4.24;68.29
24825;BME280;12910;57.690;11.974;2023-04-03T11:04:02;102707.28;;;4.33;69.41
24825;BME280;12910;57.690;11.974;2023-04-03T11:06:37;102702.03;;;4.42;68.54
24825;BME280;12910;57.690;11.974;2023-04-03T11:09:21;102687.47;;;4.39;67.45
24825;BME280;12910;57.690;11.974;2023-04-03T11:11:49;102701.16;;;4.41;68.77
24825;BME280;12910;57.690;11.974;2023-04-03T11:16:57;102689.00;;;4.37;72.41
24825;BME280;12910;57.690;11.974;2023-04-03T11:19:39;102706.59;;;4.46;71.65
24825;BME280;12910;57.690;11.974;2023-04-03T11:22:13;102691.22;;;4.44;70.48
24825;BME280;12910;57.690;11.974;2023-04-03T11:24:43;102693.13;;;4.47;71.79
24825;BME280;12910;57.690;11.974;2023-04-03T11:27:17;102685.41;;;4.57;73.35
24825;BME280;12910;57.690;11.974;2023-04-03T11:29:47;102690.47;;;4.57;72.43
24825;BME280;12910;57.690;11.974;2023-04-03T11:34:44;102678.53;;;4.44;73.38
24825;BME280;12910;57.690;11.974;2023-04-03T11:40:05;102669.81;;;4.52;78.27
24825;BME280;12910;57.690;11.974;2023-04-03T11:53:42;102655.91;;;4.59;80.12
24825;BME280;12910;57.690;11.974;2023-04-03T12:04:20;102659.91;;;4.67;77.57
24825;BME280;12910;57.690;11.974;2023-04-03T12:12:24;102646.44;;;4.68;75.27
24825;BME280;12910;57.690;11.974;2023-04-03T12:14:51;102632.09;;;4.69;77.45
24825;BME280;12910;57.690;11.974;2023-04-03T12:17:25;102634.06;;;4.73;75.91
24825;BME280;12910;57.690;11.974;2023-04-03T12:19:52;102623.81;;;4.72;76.25
24825;BME280;12910;57.690;11.974;2023-04-03T12:22:19;102626.00;;;4.91;77.95
24825;BME280;12910;57.690;11.974;2023-04-03T12:24:48;102633.41;;;4.99;77.92
24825;BME280;12910;57.690;11.974;2023-04-03T12:27:27;102623.03;;;4.96;75.41
24825;BME280;12910;57.690;11.974;2023-04-03T12:41:35;102630.44;;;4.93;74.06
24825;BME280;12910;57.690;11.974;2023-04-03T12:46:38;102594.31;;;5.09;78.78
24825;BME280;12910;57.690;11.974;2023-04-03T12:51:54;102584.47;;;5.14;77.33
24825;BME280;12910;57.690;11.974;2023-04-03T12:54:23;102568.63;;;5.18;77.21
24825;BME280;12910;57.690;11.974;2023-04-03T12:56:51;102586.06;;;5.25;77.39
24825;BME280;12910;57.690;11.974;2023-04-03T12:59:25;102582.25;;;5.19;76.01
24825;BME280;12910;57.690;11.974;2023-04-03T13:02:01;102583.44;;;5.24;76.28
24825;BME280;12910;57.690;11.974;2023-04-03T13:04:28;102582.25;;;5.07;73.59
24825;BME280;12910;57.690;11.974;2023-04-03T13:06:55;102578.03;;;5.19;75.92
24825;BME280;12910;57.690;11.974;2023-04-03T13:11:50;102570.22;;;5.41;74.78
24825;BME280;12910;57.690;11.974;2023-04-03T13:14:21;102574.63;;;5.44;72.45
24825;BME280;12910;57.690;11.974;2023-04-03T13:19:23;102577.66;;;5.26;71.65
24825;BME280;12910;57.690;11.974;2023-04-03T13:21:49;102573.34;;;5.25;71.52
24825;BME280;12910;57.690;11.974;2023-04-03T13:24:16;102584.78;;;5.19;70.35
24825;BME280;12910;57.690;11.974;2023-04-03T13:26:42;102559.38;;;5.19;71.49
24825;BME280;12910;57.690;11.974;2023-04-03T13:29:21;102558.22;;;5.27;71.00
24825;BME280;12910;57.690;11.974;2023-04-03T13:31:53;102557.88;;;5.34;70.64
24825;BME280;12910;57.690;11.974;2023-04-03T13:34:19;102559.41;;;5.32;70.24
24825;BME280;12910;57.690;11.974;2023-04-03T13:41:54;102550.06;;;5.19;69.84
24825;BME280;12910;57.690;11.974;2023-04-03T13:46:51;102546.50;;;5.29;69.00
24825;BME280;12910;57.690;11.974;2023-04-03T13:51:51;102541.13;;;5.12;69.39
24825;BME280;12910;57.690;11.974;2023-04-03T13:54:23;102543.78;;;5.14;69.27
24825;BME280;12910;57.690;11.974;2023-04-03T13:56:57;102530.91;;;5.24;70.07
24825;BME280;12910;57.690;11.974;2023-04-03T13:59:30;102535.06;;;5.36;69.48
24825;BME280;12910;57.690;11.974;2023-04-03T14:04:30;102516.81;;;5.41;68.96
24825;BME280;12910;57.690;11.974;2023-04-03T14:06:56;102518.06;;;5.35;68.20
24825;BME280;12910;57.690;11.974;2023-04-03T14:09:24;102517.28;;;5.36;70.62
24825;BME280;12910;57.690;11.974;2023-04-03T14:11:57;102528.53;;;5.39;69.02
24825;BME280;12910;57.690;11.974;2023-04-03T14:14:27;102521.03;;;5.41;69.79
24825;BME280;12910;57.690;11.974;2023-04-03T14:16:58;102517.81;;;5.43;69.52
24825;BME280;12910;57.690;11.974;2023-04-03T14:19:33;102528.06;;;5.45;70.72
24825;BME280;12910;57.690;11.974;2023-04-03T14:22:00;102513.25;;;5.26;72.00
24825;BME280;12910;57.690;11.974;2023-04-03T14:24:26;102511.94;;;5.19;74.62
24825;BME280;12910;57.690;11.974;2023-04-03T14:26:54;102499.44;;;5.22;76.05
24825;BME280;12910;57.690;11.974;2023-04-03T14:29:21;102509.47;;;5.33;76.26
24825;BME280;12910;57.690;11.974;2023-04-03T14:31:47;102513.78;;;5.34;76.71
24825;BME280;12910;57.690;11.974;2023-04-03T14:34:14;102496.78;;;5.21;77.38
24825;BME280;12910;57.690;11.974;2023-04-03T14:36:42;102502.38;;;5.28;78.34
24825;BME280;12910;57.690;11.974;2023-04-03T14:39:11;102497.84;;;5.24;79.29
24825;BME280;12910;57.690;11.974;2023-04-03T14:41:42;102491.91;;;5.24;80.04
24825;BME280;12910;57.690;11.974;2023-04-03T14:44:07;102490.59;;;5.17;79.85